Time;durP1;ratioP1;P1;durP2;ratioP2;P2;SDS_P1;SDS_P2;PMS_P1;PMS_P2;Temp;Humidity;BMP_temperature;BMP_pressure;BME280_temperature;BME280_humidity;BME280_pressure;Samples;Min_cycle;Max_cycle;Signal;HPM_P1;HPM_P2
2021/09/02 00:00:05;;;;;;;20.60;12.60;;;12.20;99.90;;;;;;4895248;29;20049;-69
2021/09/02 00:02:33;;;;;;;17.95;11.45;;;12.20;99.90;;;;;;4883055;29;20842;-69
2021/09/02 00:05:01;;;;;;;16.10;10.27;;;12.20;99.90;;;;;;4894181;29;20060;-69
2021/09/02 00:07:28;;;;;;;15.70;10.57;;;12.10;99.90;;;;;;4893557;29;20040;-69
2021/09/02 00:09:56;;;;;;;16.98;10.98;;;12.10;99.90;;;;;;4887438;29;20127;-70
2021/09/02 00:12:23;;;;;;;14.07;9.85;;;12.10;99.90;;;;;;4883430;29;20052;-69
2021/09/02 00:14:50;;;;;;;16.52;9.93;;;12.10;99.90;;;;;;4876975;29;20059;-69
2021/09/02 00:17:18;;;;;;;14.48;9.73;;;12.10;99.90;;;;;;4894769;29;20045;-68
2021/09/02 00:19:45;;;;;;;15.00;10.00;;;12.00;99.90;;;;;;4874576;29;20060;-69
2021/09/02 00:22:13;;;;;;;14.43;9.80;;;12.10;99.90;;;;;;4890442;29;20052;-69
2021/09/02 00:24:40;;;;;;;14.13;9.65;;;12.00;99.90;;;;;;4876566;29;20083;-69
2021/09/02 00:27:11;;;;;;;15.73;9.88;;;12.00;99.90;;;;;;4892110;29;20056;-69
2021/09/02 00:29:38;;;;;;;13.63;9.10;;;12.00;99.90;;;;;;4891350;29;20132;-69
2021/09/02 00:32:06;;;;;;;14.93;9.18;;;12.00;99.90;;;;;;4902132;29;20048;-69
2021/09/02 00:34:33;;;;;;;13.80;9.40;;;11.90;99.90;;;;;;4892725;29;20041;-69
2021/09/02 00:37:00;;;;;;;15.60;9.23;;;12.00;99.90;;;;;;4893499;29;20075;-69
2021/09/02 00:39:28;;;;;;;13.38;9.00;;;11.90;99.90;;;;;;4891378;29;20040;-69
2021/09/02 00:41:55;;;;;;;15.98;9.38;;;11.90;99.90;;;;;;4885139;29;20116;-69
2021/09/02 00:44:38;;;;;;;13.52;9.75;;;11.90;99.90;;;;;;4892634;29;20428;-69
2021/09/02 00:47:14;;;;;;;13.52;8.60;;;11.90;99.90;;;;;;4893082;29;20048;-70
2021/09/02 00:49:42;;;;;;;15.38;9.40;;;11.90;99.90;;;;;;4892359;29;20048;-69
2021/09/02 00:52:21;;;;;;;12.38;8.48;;;11.80;99.90;;;;;;4886669;29;20160;-70
2021/09/02 00:54:51;;;;;;;13.55;9.52;;;11.90;99.90;;;;;;4876551;29;20052;-69
2021/09/02 00:57:21;;;;;;;16.13;9.73;;;11.90;99.90;;;;;;4891736;29;20513;-69
2021/09/02 00:59:56;;;;;;;13.88;9.30;;;11.80;99.90;;;;;;4893868;29;20044;-69
2021/09/02 01:02:28;;;;;;;14.23;9.20;;;11.80;99.90;;;;;;4884843;29;20101;-69
2021/09/02 01:04:59;;;;;;;;;;;11.70;99.90;;;;;;4876004;29;20131;-69
2021/09/02 01:07:29;;;;;;;16.27;10.05;;;11.80;99.90;;;;;;4892201;29;19979;-68
2021/09/02 01:09:59;;;;;;;13.55;8.93;;;11.70;99.90;;;;;;4892407;29;20443;-69
2021/09/02 01:12:37;;;;;;;14.13;9.07;;;11.70;99.90;;;;;;4901406;29;20060;-69
2021/09/02 01:15:19;;;;;;;13.50;9.65;;;11.70;99.90;;;;;;4881950;29;20041;-69
2021/09/02 01:17:48;;;;;;;14.38;8.82;;;11.70;99.90;;;;;;4892190;29;20124;-69
2021/09/02 01:20:22;;;;;;;15.20;9.80;;;11.60;99.90;;;;;;4892701;29;20049;-68
2021/09/02 01:22:51;;;;;;;15.55;9.13;;;11.60;99.90;;;;;;4881855;29;20135;-68
2021/09/02 01:25:20;;;;;;;15.70;9.52;;;11.60;99.90;;;;;;4893788;29;20048;-68
2021/09/02 01:27:58;;;;;;;16.05;9.63;;;11.60;99.90;;;;;;4894160;29;20054;-68
2021/09/02 01:30:25;;;;;;;15.95;9.10;;;11.60;99.90;;;;;;4892715;29;20665;-69
2021/09/02 01:32:54;;;;;;;13.85;8.98;;;11.50;99.90;;;;;;4883514;29;20037;-68
2021/09/02 01:35:23;;;;;;;15.52;9.00;;;11.50;99.90;;;;;;4868194;29;20048;-69
2021/09/02 01:37:56;;;;;;;16.00;10.27;;;11.50;99.90;;;;;;4892942;29;20092;-69
2021/09/02 01:40:29;;;;;;;13.18;8.98;;;11.50;99.90;;;;;;4891951;29;20424;-69
2021/09/02 01:42:57;;;;;;;15.88;9.90;;;11.40;99.90;;;;;;4894338;29;20128;-69
2021/09/02 01:45:24;;;;;;;16.20;10.50;;;11.50;99.90;;;;;;4889046;29;20140;-69
2021/09/02 01:47:55;;;;;;;13.70;9.05;;;11.40;99.90;;;;;;4888448;29;20048;-69
2021/09/02 01:50:23;;;;;;;14.38;9.55;;;11.40;99.90;;;;;;4889674;29;20381;-69
2021/09/02 01:52:56;;;;;;;15.07;10.57;;;11.40;99.90;;;;;;4890635;29;20344;-69
2021/09/02 01:55:25;;;;;;;16.15;10.23;;;11.40;99.90;;;;;;4892289;29;20416;-69
2021/09/02 01:57:53;;;;;;;13.88;9.38;;;11.40;99.90;;;;;;4894032;29;20131;-69
2021/09/02 02:00:22;;;;;;;15.27;9.52;;;11.30;99.90;;;;;;4888288;29;20079;-70
2021/09/02 02:02:49;;;;;;;14.50;10.45;;;11.30;99.90;;;;;;4882436;29;20072;-69
2021/09/02 02:05:18;;;;;;;15.43;9.93;;;11.30;99.90;;;;;;4888062;29;20080;-69
2021/09/02 02:07:46;;;;;;;16.23;9.82;;;11.30;99.90;;;;;;4891992;29;20052;-69
2021/09/02 02:10:16;;;;;;;13.88;9.80;;;11.20;99.90;;;;;;4892985;29;20055;-69
2021/09/02 02:12:44;;;;;;;16.83;10.13;;;11.30;99.90;;;;;;4893395;29;20599;-69
2021/09/02 02:15:12;;;;;;;17.02;9.63;;;11.20;99.90;;;;;;4893013;29;20112;-70
2021/09/02 02:17:40;;;;;;;15.52;10.10;;;11.20;99.90;;;;;;4893617;29;20051;-69
2021/09/02 02:20:09;;;;;;;17.13;10.05;;;11.20;99.90;;;;;;4885507;29;20076;-69
2021/09/02 02:22:37;;;;;;;13.68;10.00;;;11.20;99.90;;;;;;4879917;29;20084;-69
2021/09/02 02:25:06;;;;;;;15.05;9.75;;;11.20;99.90;;;;;;4892297;29;20132;-69
2021/09/02 02:27:34;;;;;;;16.90;10.20;;;11.20;99.90;;;;;;4893925;29;20055;-70
2021/09/02 02:30:06;;;;;;;17.50;9.55;;;11.20;99.90;;;;;;4890857;29;20155;-69
2021/09/02 02:32:33;;;;;;;13.95;8.73;;;11.20;99.90;;;;;;4896248;29;20516;-70
2021/09/02 02:35:01;;;;;;;16.40;10.25;;;11.20;99.90;;;;;;4890222;29;20098;-69
2021/09/02 02:37:29;;;;;;;15.20;9.02;;;11.10;99.90;;;;;;4892517;29;20343;-69
2021/09/02 02:39:56;;;;;;;14.63;9.68;;;11.10;99.90;;;;;;4896422;29;20127;-70
2021/09/02 02:42:24;;;;;;;13.95;8.68;;;11.10;99.90;;;;;;4894558;29;20167;-70
2021/09/02 02:44:51;;;;;;;15.35;10.00;;;11.10;99.90;;;;;;4897324;29;20132;-69
2021/09/02 02:47:18;;;;;;;14.65;9.23;;;11.10;99.90;;;;;;4908704;29;20080;-69
2021/09/02 02:49:46;;;;;;;15.98;9.57;;;11.00;99.90;;;;;;4885400;29;20045;-69
2021/09/02 02:52:13;;;;;;;15.50;9.30;;;11.00;99.90;;;;;;4895931;29;20139;-69
2021/09/02 02:54:40;;;;;;;13.40;9.38;;;11.00;99.90;;;;;;4885543;29;20117;-69
2021/09/02 02:57:07;;;;;;;14.50;10.05;;;11.00;99.90;;;;;;4887518;29;20065;-69
2021/09/02 02:59:35;;;;;;;18.80;10.65;;;10.90;99.90;;;;;;4895779;29;20123;-69
2021/09/02 03:02:02;;;;;;;18.05;9.88;;;10.90;99.90;;;;;;4896055;29;20078;-70
2021/09/02 03:04:29;;;;;;;15.77;9.38;;;10.90;99.90;;;;;;4895112;29;20048;-69
2021/09/02 03:06:57;;;;;;;14.23;9.23;;;10.80;99.90;;;;;;4894146;29;20049;-70
2021/09/02 03:09:24;;;;;;;14.48;9.88;;;10.80;99.90;;;;;;4892639;29;20061;-69
2021/09/02 03:11:51;;;;;;;15.77;9.23;;;10.80;99.90;;;;;;4888480;29;20137;-69
2021/09/02 03:14:18;;;;;;;17.75;10.05;;;10.80;99.90;;;;;;4895585;29;20044;-69
2021/09/02 03:16:46;;;;;;;16.17;9.65;;;10.70;99.90;;;;;;4896498;29;20411;-69
2021/09/02 03:19:13;;;;;;;14.65;9.32;;;10.70;99.90;;;;;;4895364;29;20440;-69
2021/09/02 03:21:40;;;;;;;15.32;9.45;;;10.70;99.90;;;;;;4889293;29;20056;-69
2021/09/02 03:24:08;;;;;;;14.38;8.90;;;10.70;99.90;;;;;;4886275;29;20135;-69
2021/09/02 03:26:35;;;;;;;13.38;8.65;;;10.60;99.90;;;;;;4890899;29;20053;-69
2021/09/02 03:29:03;;;;;;;15.35;8.82;;;10.60;99.90;;;;;;4882957;29;20052;-69
2021/09/02 03:31:31;;;;;;;16.23;8.82;;;10.60;99.90;;;;;;4899338;29;20055;-69
2021/09/02 03:33:59;;;;;;;12.65;8.20;;;10.50;99.90;;;;;;4894953;29;20528;-69
2021/09/02 03:36:26;;;;;;;14.00;8.35;;;10.50;99.90;;;;;;4879025;29;20041;-69
2021/09/02 03:38:56;;;;;;;14.48;8.57;;;10.50;99.90;;;;;;4895382;29;20040;-69
2021/09/02 03:41:23;;;;;;;13.68;8.45;;;10.40;99.90;;;;;;4880232;29;20051;-69
2021/09/02 03:43:50;;;;;;;16.10;8.07;;;10.40;99.90;;;;;;4896146;29;20045;-69
2021/09/02 03:46:18;;;;;;;15.10;9.05;;;10.40;99.90;;;;;;4877630;29;20052;-69
2021/09/02 03:48:45;;;;;;;14.45;8.93;;;10.40;99.90;;;;;;4890337;29;20045;-68
2021/09/02 03:51:12;;;;;;;17.58;10.00;;;10.40;99.90;;;;;;4891255;29;20474;-69
2021/09/02 03:53:40;;;;;;;17.73;10.75;;;10.40;99.90;;;;;;4877582;29;20136;-69
2021/09/02 03:56:07;;;;;;;16.23;10.55;;;10.40;99.90;;;;;;4897053;29;20534;-69
2021/09/02 03:58:34;;;;;;;14.63;8.60;;;10.40;99.90;;;;;;4893389;29;20052;-69
2021/09/02 04:01:01;;;;;;;16.90;10.32;;;10.30;99.90;;;;;;4895568;29;20427;-70
2021/09/02 04:03:29;;;;;;;16.92;9.25;;;10.40;99.90;;;;;;4894390;29;20056;-69
2021/09/02 04:05:56;;;;;;;14.75;9.35;;;10.40;99.90;;;;;;4889775;29;20468;-69
2021/09/02 04:08:23;;;;;;;16.88;9.20;;;10.40;99.90;;;;;;4893336;29;20503;-69
2021/09/02 04:10:51;;;;;;;17.15;10.45;;;10.40;99.90;;;;;;4886849;29;20495;-69
2021/09/02 04:13:18;;;;;;;18.80;12.52;;;10.30;99.90;;;;;;4877162;29;20045;-69
2021/09/02 04:15:45;;;;;;;16.70;10.48;;;10.40;99.90;;;;;;4885169;29;20049;-70
2021/09/02 04:18:13;;;;;;;13.38;8.80;;;10.30;99.90;;;;;;4892475;29;20061;-69
2021/09/02 04:20:40;;;;;;;12.82;8.55;;;10.30;99.90;;;;;;4892336;29;20048;-69
2021/09/02 04:23:08;;;;;;;16.20;10.07;;;10.30;99.90;;;;;;4879282;29;20116;-69
2021/09/02 04:25:35;;;;;;;15.07;8.80;;;10.30;99.90;;;;;;4889979;29;20456;-69
2021/09/02 04:28:03;;;;;;;15.35;9.60;;;10.30;99.90;;;;;;4894074;29;20053;-69
2021/09/02 04:30:31;;;;;;;14.45;8.77;;;10.30;99.90;;;;;;4892916;29;20076;-69
2021/09/02 04:33:00;;;;;;;15.27;8.70;;;10.30;99.90;;;;;;4894420;29;20044;-69
2021/09/02 04:35:28;;;;;;;15.98;8.93;;;10.20;99.90;;;;;;4889859;29;20048;-69
2021/09/02 04:37:55;;;;;;;17.92;10.13;;;10.20;99.90;;;;;;4889012;29;20052;-69
2021/09/02 04:40:23;;;;;;;13.98;9.23;;;10.30;99.90;;;;;;4893480;29;20048;-70
2021/09/02 04:42:50;;;;;;;16.65;8.75;;;10.30;99.90;;;;;;4893979;29;20414;-69
2021/09/02 04:45:17;;;;;;;18.88;10.50;;;10.30;99.90;;;;;;4895416;29;20047;-69
2021/09/02 04:47:45;;;;;;;15.13;8.35;;;10.30;99.90;;;;;;4892488;29;20547;-69
2021/09/02 04:50:13;;;;;;;12.75;8.55;;;10.30;99.90;;;;;;4893487;29;20065;-69
2021/09/02 04:52:40;;;;;;;14.35;9.25;;;10.30;99.90;;;;;;4899085;29;20056;-69
2021/09/02 04:55:10;;;;;;;15.15;9.40;;;10.40;99.90;;;;;;4880350;29;20053;-69
2021/09/02 04:57:38;;;;;;;13.82;9.57;;;10.40;99.90;;;;;;4892215;29;20505;-69
2021/09/02 05:00:06;;;;;;;16.13;10.32;;;10.50;99.90;;;;;;4893914;29;20045;-68
2021/09/02 05:02:35;;;;;;;20.65;12.80;;;10.50;99.90;;;;;;4880806;29;20049;-69
2021/09/02 05:05:03;;;;;;;15.95;11.00;;;10.50;99.90;;;;;;4888605;29;20060;-68
2021/09/02 05:07:33;;;;;;;15.88;10.18;;;10.60;99.90;;;;;;4891347;29;20539;-69
2021/09/02 05:10:04;;;;;;;16.10;10.02;;;10.70;99.90;;;;;;4877482;29;20057;-69
2021/09/02 05:12:34;;;;;;;14.15;9.48;;;10.70;99.90;;;;;;4890319;29;20036;-69
2021/09/02 05:15:01;;;;;;;16.27;9.63;;;10.80;99.90;;;;;;4891665;29;20666;-69
2021/09/02 05:17:29;;;;;;;15.88;10.80;;;10.80;99.90;;;;;;4893029;29;20048;-70
2021/09/02 05:19:56;;;;;;;16.50;10.15;;;10.90;99.90;;;;;;4884876;29;20053;-70
2021/09/02 05:22:23;;;;;;;15.30;9.93;;;11.00;99.90;;;;;;4890638;29;20048;-70
2021/09/02 05:24:51;;;;;;;14.82;8.95;;;11.00;99.90;;;;;;4890918;29;20456;-69
2021/09/02 05:27:18;;;;;;;15.20;9.63;;;11.10;99.90;;;;;;4874350;29;20057;-69
2021/09/02 05:29:46;;;;;;;20.65;10.05;;;11.20;99.90;;;;;;4893113;29;20148;-69
2021/09/02 05:32:13;;;;;;;19.52;10.55;;;11.20;99.90;;;;;;4885257;29;20037;-69
2021/09/02 05:34:41;;;;;;;20.20;10.93;;;11.30;99.90;;;;;;4891152;29;20120;-69
2021/09/02 05:37:08;;;;;;;17.55;9.68;;;11.40;99.90;;;;;;4887006;29;20076;-69
2021/09/02 05:39:36;;;;;;;20.10;11.73;;;11.40;99.90;;;;;;4882674;29;20465;-69
2021/09/02 05:42:04;;;;;;;17.70;11.23;;;11.50;99.90;;;;;;4888318;29;20143;-69
2021/09/02 05:44:31;;;;;;;15.35;8.95;;;11.60;99.90;;;;;;4885364;29;20044;-69
2021/09/02 05:46:58;;;;;;;14.02;9.30;;;11.70;99.90;;;;;;4891961;29;20132;-70
2021/09/02 05:49:25;;;;;;;16.75;10.48;;;11.80;99.90;;;;;;4891363;29;20060;-69
2021/09/02 05:51:53;;;;;;;21.02;14.10;;;11.90;99.90;;;;;;4893193;29;20041;-69
2021/09/02 05:54:20;;;;;;;19.40;12.90;;;11.90;99.90;;;;;;4893683;29;20049;-69
2021/09/02 05:56:47;;;;;;;18.30;10.98;;;11.90;99.90;;;;;;4889025;29;20057;-69
2021/09/02 05:59:14;;;;;;;16.05;10.15;;;12.00;99.90;;;;;;4885679;29;20052;-69
2021/09/02 06:01:43;;;;;;;14.05;9.68;;;12.00;99.90;;;;;;4892498;29;20060;-69
2021/09/02 06:04:10;;;;;;;13.88;9.43;;;12.10;99.90;;;;;;4890510;29;20159;-68
2021/09/02 06:06:38;;;;;;;16.20;10.18;;;12.20;99.90;;;;;;4906512;29;20052;-69
2021/09/02 06:09:07;;;;;;;14.80;9.18;;;12.30;99.90;;;;;;4895057;29;20135;-69
2021/09/02 06:11:35;;;;;;;17.52;10.85;;;12.40;99.90;;;;;;4896476;29;20052;-69
2021/09/02 06:14:03;;;;;;;15.75;9.20;;;12.50;99.90;;;;;;4896945;29;20048;-70
2021/09/02 06:16:30;;;;;;;14.20;8.80;;;12.60;99.90;;;;;;4897774;29;20044;-69
2021/09/02 06:18:57;;;;;;;14.48;9.10;;;12.70;99.90;;;;;;4895479;29;20040;-69
2021/09/02 06:21:25;;;;;;;16.17;10.18;;;12.80;99.90;;;;;;4879799;29;20063;-70
2021/09/02 06:23:53;;;;;;;13.57;9.18;;;12.90;99.90;;;;;;4894959;29;20059;-69
2021/09/02 06:26:20;;;;;;;15.77;9.73;;;13.00;99.90;;;;;;4897695;29;20109;-69
2021/09/02 06:28:47;;;;;;;12.88;8.70;;;13.10;99.90;;;;;;4878784;29;20055;-69
2021/09/02 06:31:19;;;;;;;15.85;9.82;;;13.20;99.90;;;;;;4892286;29;20075;-69
2021/09/02 06:33:46;;;;;;;13.35;8.93;;;13.40;99.90;;;;;;4892102;29;20044;-69
2021/09/02 06:36:14;;;;;;;18.33;11.02;;;13.40;99.90;;;;;;4895007;29;20052;-69
2021/09/02 06:38:41;;;;;;;21.27;11.40;;;13.50;99.90;;;;;;4894923;29;20534;-70
2021/09/02 06:41:08;;;;;;;19.23;10.82;;;13.60;99.90;;;;;;4904470;29;20044;-69
2021/09/02 06:43:36;;;;;;;19.88;11.25;;;13.60;99.90;;;;;;4876697;29;20083;-69
2021/09/02 06:46:03;;;;;;;16.88;10.88;;;13.70;99.90;;;;;;4892330;29;20360;-69
2021/09/02 06:48:30;;;;;;;15.02;9.82;;;13.70;99.90;;;;;;4895447;29;20045;-69
2021/09/02 06:50:57;;;;;;;14.88;10.05;;;13.90;99.90;;;;;;4895445;29;20055;-69
2021/09/02 06:53:24;;;;;;;15.75;9.35;;;14.00;99.90;;;;;;4895166;29;20053;-69
2021/09/02 06:55:52;;;;;;;15.82;10.82;;;14.10;99.90;;;;;;4895569;29;20047;-69
2021/09/02 06:58:19;;;;;;;13.18;8.88;;;14.20;99.90;;;;;;4895809;29;20045;-70
2021/09/02 07:00:46;;;;;;;15.98;9.00;;;14.30;99.90;;;;;;4882792;29;20540;-69
2021/09/02 07:03:15;;;;;;;14.68;9.38;;;14.40;99.90;;;;;;4889903;29;20128;-69
2021/09/02 07:05:42;;;;;;;13.85;8.98;;;14.60;99.90;;;;;;4896942;29;20044;-69
2021/09/02 07:08:13;;;;;;;15.85;9.80;;;14.70;99.90;;;;;;4895993;29;20058;-69
2021/09/02 07:10:41;;;;;;;13.15;9.32;;;14.80;99.90;;;;;;4896688;29;20518;-68
2021/09/02 07:13:08;;;;;;;16.60;9.25;;;14.90;99.90;;;;;;4893966;29;20399;-69
2021/09/02 07:15:36;;;;;;;16.00;10.20;;;15.00;99.90;;;;;;4891326;29;20036;-69
2021/09/02 07:18:03;;;;;;;14.63;8.98;;;15.10;99.90;;;;;;4895552;29;20132;-69
2021/09/02 07:20:31;;;;;;;15.55;9.77;;;15.20;99.90;;;;;;4893466;29;20135;-70
2021/09/02 07:22:59;;;;;;;18.92;10.10;;;15.40;99.90;;;;;;4894383;29;20060;-69
2021/09/02 07:25:27;;;;;;;17.00;10.55;;;15.50;99.90;;;;;;4882004;29;20468;-69
2021/09/02 07:27:54;;;;;;;14.63;9.77;;;15.60;99.90;;;;;;4895578;29;20052;-69
2021/09/02 07:30:21;;;;;;;17.23;11.85;;;15.80;99.90;;;;;;4888889;29;20084;-69
2021/09/02 07:32:48;;;;;;;17.30;10.45;;;15.90;99.90;;;;;;4904398;29;20045;-68
2021/09/02 07:35:16;;;;;;;18.38;10.45;;;16.00;99.90;;;;;;4894473;29;20155;-69
2021/09/02 07:37:43;;;;;;;17.70;11.13;;;16.10;99.90;;;;;;4895712;29;20534;-68
2021/09/02 07:40:11;;;;;;;16.50;10.52;;;16.20;99.90;;;;;;4895498;29;20089;-69
2021/09/02 07:42:40;;;;;;;18.08;9.93;;;16.30;99.90;;;;;;4882093;29;20053;-69
2021/09/02 07:45:08;;;;;;;19.92;12.52;;;16.40;99.90;;;;;;4884350;29;20049;-68
2021/09/02 07:47:35;;;;;;;15.85;10.00;;;16.50;99.90;;;;;;4892973;29;20049;-70
2021/09/02 07:50:07;;;;;;;19.23;9.05;;;16.60;99.90;;;;;;4884824;29;20159;-69
2021/09/02 07:52:36;;;;;;;19.08;10.48;;;16.80;99.90;;;;;;4884933;29;20045;-68
2021/09/02 07:55:06;;;;;;;13.45;8.75;;;16.90;99.90;;;;;;4894225;29;20045;-69
2021/09/02 07:57:35;;;;;;;15.55;9.88;;;17.00;99.90;;;;;;4893382;29;20143;-70
2021/09/02 08:00:06;;;;;;;15.95;9.35;;;17.10;99.90;;;;;;4895044;29;20108;-70
2021/09/02 08:02:40;;;;;;;15.80;8.70;;;17.30;99.90;;;;;;4892124;29;20475;-69
2021/09/02 08:05:09;;;;;;;15.43;9.13;;;17.40;99.90;;;;;;4887945;29;20060;-69
2021/09/02 08:07:47;;;;;;;16.25;9.38;;;17.50;99.90;;;;;;4892876;29;20452;-69
2021/09/02 08:10:16;;;;;;;15.02;9.32;;;17.70;99.90;;;;;;4895595;29;20056;-69
2021/09/02 08:12:44;;;;;;;13.07;8.50;;;17.80;99.90;;;;;;4892198;29;20071;-70
2021/09/02 08:15:11;;;;;;;12.75;8.43;;;17.90;99.90;;;;;;4894413;29;20103;-70
2021/09/02 08:17:40;;;;;;;17.98;9.43;;;18.00;99.90;;;;;;4893138;29;20123;-70
2021/09/02 08:20:09;;;;;;;15.25;9.32;;;18.00;99.90;;;;;;4894975;29;20052;-69
2021/09/02 08:22:39;;;;;;;12.88;7.75;;;18.10;99.90;;;;;;4892310;29;20048;-69
2021/09/02 08:25:07;;;;;;;13.98;8.48;;;18.20;99.90;;;;;;4873403;29;20080;-69
2021/09/02 08:27:34;;;;;;;13.30;8.15;;;18.30;99.90;;;;;;4891919;29;20503;-69
2021/09/02 08:30:03;;;;;;;11.93;7.60;;;18.40;99.90;;;;;;4891828;29;20056;-69
2021/09/02 08:32:31;;;;;;;13.20;8.48;;;18.60;99.90;;;;;;4908215;29;20349;-70
2021/09/02 08:34:58;;;;;;;16.17;10.27;;;18.70;99.90;;;;;;4892571;29;20044;-69
2021/09/02 08:37:26;;;;;;;14.75;9.18;;;18.80;99.90;;;;;;4889052;29;20507;-69
2021/09/02 08:39:53;;;;;;;16.20;8.77;;;18.80;99.90;;;;;;4893065;29;20064;-69
2021/09/02 08:42:21;;;;;;;12.30;8.13;;;18.90;99.90;;;;;;4893790;29;20061;-69
2021/09/02 08:44:49;;;;;;;11.32;7.68;;;19.00;99.90;;;;;;4892680;29;20151;-69
2021/09/02 08:47:19;;;;;;;11.00;7.47;;;19.10;99.90;;;;;;4893305;29;20432;-69
2021/09/02 08:49:48;;;;;;;11.43;7.07;;;19.20;99.90;;;;;;4888476;29;20059;-70
2021/09/02 08:52:16;;;;;;;12.57;7.82;;;19.40;99.90;;;;;;4875575;29;20037;-69
2021/09/02 08:54:47;;;;;;;11.95;7.38;;;19.50;99.90;;;;;;4886408;29;20052;-69
2021/09/02 08:57:15;;;;;;;11.43;7.82;;;19.50;99.90;;;;;;4890547;29;20139;-69
2021/09/02 08:59:43;;;;;;;13.13;7.28;;;19.60;99.90;;;;;;4893618;29;20123;-69
2021/09/02 09:02:25;;;;;;;10.65;7.43;;;19.70;99.90;;;;;;4894391;29;20412;-69
2021/09/02 09:05:00;;;;;;;11.75;7.63;;;19.70;99.90;;;;;;4885383;29;20552;-69
2021/09/02 09:07:29;;;;;;;14.40;7.57;;;19.80;99.90;;;;;;4881026;29;20152;-69
2021/09/02 09:09:57;;;;;;;11.98;7.80;;;19.90;99.90;;;;;;4892608;29;20404;-69
2021/09/02 09:12:35;;;;;;;12.82;7.97;;;20.00;99.90;;;;;;4894277;29;20396;-69
2021/09/02 09:15:04;;;;;;;12.88;7.13;;;20.10;99.90;;;;;;4894054;29;20553;-69
2021/09/02 09:17:33;;;;;;;11.90;7.03;;;20.20;99.90;;;;;;4889692;29;20068;-70
2021/09/02 09:20:00;;;;;;;11.90;8.30;;;20.40;99.90;;;;;;4859173;29;20045;-69
2021/09/02 09:22:29;;;;;;;11.75;8.80;;;20.50;99.90;;;;;;4889619;29;20246;-70
2021/09/02 09:25:01;;;;;;;13.00;7.55;;;20.70;99.90;;;;;;4893771;29;20377;-69
2021/09/02 09:27:39;;;;;;;14.50;7.30;;;20.80;99.90;;;;;;4891894;29;20108;-69
2021/09/02 09:30:17;;;;;;;11.65;6.82;;;20.80;99.90;;;;;;4879648;29;20156;-70
2021/09/02 09:32:48;;;;;;;9.23;6.97;;;20.80;99.90;;;;;;4890223;29;20127;-70
2021/09/02 09:35:24;;;;;;;10.85;6.93;;;21.00;99.90;;;;;;4889500;29;20067;-69
2021/09/02 09:38:23;;;;;;;12.13;6.85;;;21.10;99.90;;;;;;4890553;29;20052;-69
2021/09/02 09:40:52;;;;;;;12.43;6.80;;;21.30;99.90;;;;;;4860707;29;20163;-70
2021/09/02 09:43:24;;;;;;;11.50;7.25;;;21.30;99.90;;;;;;4892301;29;20060;-69
2021/09/02 09:45:57;;;;;;;10.40;6.55;;;21.50;99.90;;;;;;4891622;29;20047;-69
2021/09/02 09:48:39;;;;;;;8.80;5.03;;;21.60;99.90;;;;;;4890188;29;20108;-69
2021/09/02 09:51:21;;;;;;;10.10;5.90;;;21.70;99.90;;;;;;4893335;29;20052;-69
2021/09/02 09:53:49;;;;;;;10.70;7.03;;;21.90;99.90;;;;;;4891622;29;20124;-69
2021/09/02 09:56:20;;;;;;;10.82;6.75;;;22.00;99.90;;;;;;4893331;29;20052;-69
2021/09/02 09:58:49;;;;;;;10.65;7.10;;;22.10;99.90;;;;;;4894389;29;20579;-69
2021/09/02 10:01:16;;;;;;;10.20;5.97;;;22.20;99.90;;;;;;4890302;29;20128;-70
2021/09/02 10:03:50;;;;;;;9.52;6.13;;;22.40;99.90;;;;;;4889391;29;20456;-68
2021/09/02 10:06:20;;;;;;;10.55;6.65;;;22.60;99.90;;;;;;4880522;29;20056;-69
2021/09/02 10:08:48;;;;;;;11.88;7.13;;;22.90;99.90;;;;;;4888663;29;20511;-69
2021/09/02 10:11:15;;;;;;;11.23;6.90;;;23.00;99.90;;;;;;4891583;29;20052;-69
2021/09/02 10:13:44;;;;;;;9.30;6.25;;;22.80;99.90;;;;;;4876718;29;20057;-69
2021/09/02 10:16:12;;;;;;;9.68;6.22;;;22.80;99.90;;;;;;4875137;29;20049;-69
2021/09/02 10:18:45;;;;;;;12.50;8.20;;;22.80;99.90;;;;;;4890183;29;20049;-69
2021/09/02 10:21:16;;;;;;;9.32;6.07;;;22.80;99.90;;;;;;4875024;29;20558;-70
2021/09/02 10:23:44;;;;;;;8.43;5.53;;;22.90;99.90;;;;;;4890531;29;20053;-70
2021/09/02 10:26:33;;;;;;;12.88;5.97;;;23.00;99.90;;;;;;4891001;29;20139;-69
2021/09/02 10:29:21;;;;;;;9.90;5.97;;;23.20;99.90;;;;;;4890449;29;20479;-69
2021/09/02 10:31:49;;;;;;;9.70;6.30;;;23.40;99.90;;;;;;4895202;29;20096;-69
2021/09/02 10:34:28;;;;;;;8.20;5.63;;;23.70;99.90;;;;;;4891394;29;20049;-69
2021/09/02 10:36:55;;;;;;;12.00;6.50;;;24.10;99.90;;;;;;4876330;29;20052;-68
2021/09/02 10:39:41;;;;;;;8.57;5.72;;;24.40;99.90;;;;;;4900020;29;20040;-69
2021/09/02 10:42:09;;;;;;;8.98;5.55;;;24.70;99.90;;;;;;4883958;29;20056;-69
2021/09/02 10:44:50;;;;;;;8.43;5.80;;;25.00;99.90;;;;;;4890498;29;20048;-69
2021/09/02 10:47:21;;;;;;;9.17;5.80;;;25.10;99.90;;;;;;4893859;29;20416;-69
2021/09/02 10:50:17;;;;;;;8.32;5.50;;;25.40;99.90;;;;;;4885076;29;20053;-69
2021/09/02 10:52:44;;;;;;;8.98;5.55;;;25.80;99.90;;;;;;4875146;29;20492;-69
2021/09/02 10:55:36;;;;;;;10.43;5.38;;;25.90;99.90;;;;;;4891056;29;20041;-69
2021/09/02 10:58:04;;;;;;;9.25;5.60;;;25.90;99.90;;;;;;4878274;29;20128;-69
2021/09/02 11:00:35;;;;;;;7.75;4.97;;;25.70;99.90;;;;;;4888614;29;20080;-69
2021/09/02 11:03:21;;;;;;;7.90;5.50;;;25.60;99.90;;;;;;4861029;29;20316;-70
2021/09/02 11:05:53;;;;;;;8.15;5.53;;;25.80;99.90;;;;;;4893745;29;20434;-70
2021/09/02 11:08:50;;;;;;;;;;;25.70;99.90;;;;;;4897311;29;20056;-69
2021/09/02 11:11:20;;;;;;;11.88;5.90;;;25.50;99.90;;;;;;4883993;29;20030;-70
2021/09/02 11:13:52;;;;;;;9.35;5.95;;;25.50;99.90;;;;;;4897144;29;20055;-70
2021/09/02 11:16:22;;;;;;;8.57;5.78;;;25.50;99.90;;;;;;4892291;29;20052;-70
2021/09/02 11:18:52;;;;;;;8.20;5.05;;;25.70;99.90;;;;;;4891444;29;20046;-69
2021/09/02 11:21:29;;;;;;;7.53;5.55;;;26.00;99.90;;;;;;4895788;29;20041;-69
2021/09/02 11:24:07;;;;;;;9.38;4.93;;;26.10;99.90;;;;;;4896033;29;20488;-70
2021/09/02 11:26:37;;;;;;;8.70;5.13;;;26.30;99.90;;;;;;4894575;29;20508;-70
2021/09/02 11:29:06;;;;;;;6.43;4.57;;;26.60;99.90;;;;;;4892760;29;20052;-70
2021/09/02 11:31:35;;;;;;;8.43;5.50;;;26.70;99.90;;;;;;4901383;29;20050;-69
2021/09/02 11:34:03;;;;;;;9.90;5.60;;;26.50;99.90;;;;;;4891586;29;20155;-70
2021/09/02 11:36:30;;;;;;;8.95;5.78;;;26.80;99.90;;;;;;4886548;29;20041;-69
2021/09/02 11:39:08;;;;;;;9.07;4.55;;;27.10;99.90;;;;;;4883555;29;20105;-70
2021/09/02 11:41:36;;;;;;;9.48;5.85;;;27.70;99.90;;;;;;4889088;29;20048;-70
2021/09/02 11:44:03;;;;;;;8.63;5.97;;;27.50;99.90;;;;;;4875339;29;20441;-70
2021/09/02 11:46:30;;;;;;;7.35;4.38;;;27.30;99.90;;;;;;4895003;29;20405;-69
2021/09/02 11:48:58;;;;;;;7.72;4.85;;;27.20;99.90;;;;;;4892424;29;20044;-69
2021/09/02 11:51:28;;;;;;;6.55;4.53;;;27.40;99.90;;;;;;4894488;29;20056;-70
2021/09/02 11:54:06;;;;;;;7.47;4.32;;;28.00;99.90;;;;;;4891791;29;20472;-69
2021/09/02 11:56:35;;;;;;;8.23;4.60;;;28.70;99.90;;;;;;4883989;29;20053;-69
2021/09/02 11:59:05;;;;;;;7.05;4.20;;;28.70;99.90;;;;;;4894373;29;20534;-69
2021/09/02 12:01:33;;;;;;;7.95;5.30;;;28.90;99.90;;;;;;4893995;29;20132;-69
2021/09/02 12:04:00;;;;;;;7.32;4.90;;;28.80;99.90;;;;;;4894615;29;20049;-69
2021/09/02 12:06:32;;;;;;;10.15;4.85;;;28.70;99.90;;;;;;4893263;29;20049;-69
2021/09/02 12:09:01;;;;;;;8.38;4.60;;;29.00;99.90;;;;;;4902304;29;20041;-69
2021/09/02 12:11:29;;;;;;;7.93;4.32;;;29.00;99.90;;;;;;4889584;29;20496;-69
2021/09/02 12:13:57;;;;;;;8.07;4.80;;;29.00;99.90;;;;;;4877374;29;20448;-69
2021/09/02 12:16:31;;;;;;;8.05;4.88;;;29.10;99.90;;;;;;4895210;29;20049;-69
2021/09/02 12:19:00;;;;;;;8.63;3.53;;;29.20;99.90;;;;;;4893378;29;20504;-69
2021/09/02 12:21:30;;;;;;;8.32;4.40;;;29.80;99.90;;;;;;4893893;29;20072;-69
2021/09/02 12:24:12;;;;;;;8.25;4.00;;;30.30;99.90;;;;;;4895830;29;20752;-69
2021/09/02 12:26:49;;;;;;;7.20;4.72;;;30.60;99.90;;;;;;4891956;29;20041;-69
2021/09/02 12:29:19;;;;;;;8.85;5.20;;;30.40;99.90;;;;;;4872843;29;20139;-70
2021/09/02 12:31:48;;;;;;;9.15;4.32;;;30.50;99.90;;;;;;4897957;29;20080;-69
2021/09/02 12:34:18;;;;;;;6.80;3.80;;;30.40;99.90;;;;;;4884124;29;20055;-69
2021/09/02 12:37:00;;;;;;;7.20;4.60;;;29.90;99.90;;;;;;4893402;29;20135;-69
2021/09/02 12:39:32;;;;;;;8.32;4.40;;;29.80;99.90;;;;;;4908401;29;20052;-69
2021/09/02 12:42:02;;;;;;;8.48;4.07;;;30.00;99.90;;;;;;4876212;29;20071;-69
2021/09/02 12:44:37;;;;;;;7.65;4.40;;;30.40;99.90;;;;;;4894526;29;20045;-68
2021/09/02 12:47:11;;;;;;;6.28;4.15;;;30.90;99.90;;;;;;4893013;29;20048;-70
2021/09/02 12:49:39;;;;;;;6.80;4.28;;;31.50;99.90;;;;;;4902575;29;20060;-70